Time;durP1;ratioP1;P1;durP2;ratioP2;P2;SDS_P1;SDS_P2;PMS_P1;PMS_P2;Temp;Humidity;BMP_temperature;BMP_pressure;BME280_temperature;BME280_humidity;BME280_pressure;Samples;Min_cycle;Max_cycle;Signal;HPM_P1;HPM_P2
2021/01/17 00:01:43;;;;;;;;;;;;;;;-3.43;100.00;101173.00;5111375;28;20836;-71
2021/01/17 00:04:09;;;;;;;;;;;;;;;-3.39;100.00;101171.19;5114165;28;19924;-70
2021/01/17 00:06:35;;;;;;;;;;;;;;;-3.34;100.00;101160.47;5114630;28;19962;-71
2021/01/17 00:09:01;;;;;;;;;;;;;;;-3.31;100.00;101171.94;5114932;28;19924;-70
2021/01/17 00:11:28;;;;;;;;;;;;;;;-3.28;100.00;101171.88;5114851;28;20330;-71
2021/01/17 00:13:53;;;;;;;;;;;;;;;-3.27;100.00;101160.34;5114924;28;19972;-70
2021/01/17 00:16:19;;;;;;;;;;;;;;;-3.24;100.00;101160.28;5114639;28;19938;-70
2021/01/17 00:18:45;;;;;;;;;;;;;;;-3.21;100.00;101160.25;5114538;28;19928;-70
2021/01/17 00:21:11;;;;;;;;;;;;;;;-3.19;100.00;101168.19;5114756;28;19923;-70
2021/01/17 00:23:37;;;;;;;;;;;;;;;-3.18;100.00;101156.66;5114516;28;19923;-71
2021/01/17 00:26:03;;;;;;;;;;;;;;;-3.13;100.00;101159.25;5113190;28;19974;-70
2021/01/17 00:28:30;;;;;;;;;;;;;;;-3.12;100.00;101158.34;5114580;28;20389;-71
2021/01/17 00:30:55;;;;;;;;;;;;;;;-3.10;100.00;101159.19;5114460;28;19963;-70
2021/01/17 00:33:21;;;;;;;;;;;;;;;-3.10;100.00;101151.22;5114433;28;19931;-71
2021/01/17 00:35:47;;;;;;;;;;;;;;;-3.10;100.00;101157.41;5113857;28;20416;-70
2021/01/17 00:38:13;;;;;;;;;;;;;;;-3.08;100.00;101152.94;5114438;28;19931;-70
2021/01/17 00:40:39;;;;;;;;;;;;;;;-3.06;100.00;101152.91;5114226;28;19966;-71
2021/01/17 00:43:04;;;;;;;;;;;;;;;-3.07;100.00;101151.19;5114218;28;20041;-70
2021/01/17 00:45:31;;;;;;;;;;;;;;;-3.05;100.00;101146.69;5114152;28;19928;-70
2021/01/17 00:47:57;;;;;;;;;;;;;;;-3.04;100.00;101143.13;5114089;28;19985;-70
2021/01/17 00:50:28;;;;;;;;;;;;;;;-3.04;100.00;101136.03;5112735;28;19938;-70
2021/01/17 00:52:57;;;;;;;;;;;;;;;-3.03;100.00;101136.94;5112720;28;19930;-70
2021/01/17 00:55:32;;;;;;;;;;;;;;;-3.06;100.00;101132.53;5113999;28;20325;-71
2021/01/17 00:58:03;;;;;;;;;;;;;;;-3.06;100.00;101131.66;5112804;28;19969;-71
2021/01/17 01:00:32;;;;;;;;;;;;;;;-3.04;100.00;101124.53;5112867;28;19934;-71
2021/01/17 01:03:14;;;;;;;;;;;;;;;-3.04;100.00;101129.84;5112737;28;19927;-71
2021/01/17 01:05:40;;;;;;;;;;;;;;;-3.01;100.00;101119.16;5113648;28;19996;-70
2021/01/17 01:08:06;;;;;;;;;;;;;;;-3.01;100.00;101129.78;5113545;28;20343;-70
2021/01/17 01:10:32;;;;;;;;;;;;;;;-2.99;100.00;101124.44;5113662;28;19927;-71
2021/01/17 01:12:58;;;;;;;;;;;;;;;-2.97;100.00;101122.66;5113448;28;20272;-71
2021/01/17 01:15:24;;;;;;;;;;;;;;;-2.97;100.00;101123.50;5113417;28;19923;-71
2021/01/17 01:17:50;;;;;;;;;;;;;;;-2.96;100.00;101119.97;5113416;28;19924;-71
2021/01/17 01:20:16;;;;;;;;;;;;;;;-2.94;100.00;101119.94;5113595;28;19967;-71
2021/01/17 01:22:42;;;;;;;;;;;;;;;-2.94;100.00;101117.28;5113447;28;20392;-71
2021/01/17 01:25:09;;;;;;;;;;;;;;;-2.94;100.00;101118.16;5113129;28;20403;-71
2021/01/17 01:27:35;;;;;;;;;;;;;;;-2.96;100.00;101116.44;5113240;28;19978;-71
2021/01/17 01:30:00;;;;;;;;;;;;;;;-2.96;100.00;101106.69;5113265;28;19923;-71
2021/01/17 01:32:26;;;;;;;;;;;;;;;-2.94;100.00;101106.63;5113181;28;20477;-71
2021/01/17 01:34:53;;;;;;;;;;;;;;;-2.98;100.00;101105.84;5113195;28;19924;-71
2021/01/17 01:37:19;;;;;;;;;;;;;;;-3.02;100.00;101109.44;5112997;28;19981;-71
2021/01/17 01:39:44;;;;;;;;;;;;;;;-3.05;100.00;101104.19;5112998;28;19931;-71
2021/01/17 01:42:10;;;;;;;;;;;;;;;-3.05;100.00;101099.78;5113216;28;19946;-71
2021/01/17 01:44:36;;;;;;;;;;;;;;;-3.04;100.00;101100.63;5112667;28;19939;-71
2021/01/17 01:47:02;;;;;;;;;;;;;;;-3.04;100.00;101090.88;5112771;28;20428;-71
2021/01/17 01:49:28;;;;;;;;;;;;;;;-3.06;100.00;101098.00;5113042;28;19959;-71
2021/01/17 01:51:55;;;;;;;;;;;;;;;-3.06;100.00;101094.47;5112920;28;19977;-71
2021/01/17 01:54:21;;;;;;;;;;;;;;;-3.06;100.00;101091.81;5112699;28;19970;-72
2021/01/17 01:56:51;;;;;;;;;;;;;;;-3.04;100.00;101090.00;5112387;28;19931;-72
2021/01/17 01:59:17;;;;;;;;;;;;;;;-3.03;100.00;101087.31;5112729;28;19923;-72
2021/01/17 02:01:43;;;;;;;;;;;;;;;-3.05;100.00;101081.19;5112387;28;19931;-72
2021/01/17 02:04:09;;;;;;;;;;;;;;;-3.04;100.00;101082.03;5112675;28;19924;-72
2021/01/17 02:06:35;;;;;;;;;;;;;;;-3.06;100.00;101079.41;5112464;28;19974;-72
2021/01/17 02:09:16;;;;;;;;;;;;;;;-3.07;100.00;101076.78;5112686;28;20468;-72
2021/01/17 02:11:47;;;;;;;;;;;;;;;-3.09;100.00;101071.50;5109111;28;19971;-72
2021/01/17 02:14:16;;;;;;;;;;;;;;;-3.07;100.00;101063.53;5112567;28;19924;-71
2021/01/17 02:16:44;;;;;;;;;;;;;;;-3.05;100.00;101070.56;5112357;28;20385;-72
2021/01/17 02:19:10;;;;;;;;;;;;;;;-3.01;100.00;101073.13;5112509;28;19963;-72
2021/01/17 02:21:37;;;;;;;;;;;;;;;-3.02;100.00;101066.94;5112336;28;20389;-72
2021/01/17 02:24:06;;;;;;;;;;;;;;;-3.05;100.00;101065.25;5112813;28;19930;-72
2021/01/17 02:26:32;;;;;;;;;;;;;;;-3.02;100.00;101066.94;5111471;28;20026;-73
2021/01/17 02:28:59;;;;;;;;;;;;;;;-2.99;100.00;101069.56;5112548;28;20361;-72
2021/01/17 02:31:25;;;;;;;;;;;;;;;-3.05;100.00;101065.25;5112306;28;19967;-71
2021/01/17 02:33:52;;;;;;;;;;;;;;;-3.09;100.00;101060.00;5112397;28;20397;-72
2021/01/17 02:36:28;;;;;;;;;;;;;;;-3.08;100.00;101057.31;5112520;28;19958;-72
2021/01/17 02:39:01;;;;;;;;;;;;;;;-3.09;100.00;101054.69;5113236;28;19924;-73
2021/01/17 02:41:33;;;;;;;;;;;;;;;-3.08;100.00;101057.31;5112789;28;20013;-72
2021/01/17 02:44:00;;;;;;;;;;;;;;;-3.07;100.00;101058.22;5112159;28;20549;-72
2021/01/17 02:46:25;;;;;;;;;;;;;;;-3.04;100.00;101063.44;5111753;28;19977;-72
2021/01/17 02:48:51;;;;;;;;;;;;;;;-3.01;100.00;101068.69;5112025;28;20386;-72
2021/01/17 02:51:17;;;;;;;;;;;;;;;-3.01;100.00;101063.38;5111853;28;19931;-72
2021/01/17 02:53:44;;;;;;;;;;;;;;;-2.99;100.00;101066.91;5111866;28;19986;-72
2021/01/17 02:56:12;;;;;;;;;;;;;;;-2.97;100.00;101069.50;5111424;28;19931;-72
2021/01/17 02:58:40;;;;;;;;;;;;;;;-2.97;100.00;101065.06;5111896;28;20353;-72
2021/01/17 03:01:09;;;;;;;;;;;;;;;-2.96;100.00;101066.81;5111966;28;20397;-72
2021/01/17 03:03:35;;;;;;;;;;;;;;;-2.99;100.00;101066.91;5111841;28;20384;-72
2021/01/17 03:06:03;;;;;;;;;;;;;;;-2.98;100.00;101065.09;5111626;28;20018;-72
2021/01/17 03:08:30;;;;;;;;;;;;;;;-3.00;100.00;101061.63;5111712;28;19959;-72
2021/01/17 03:10:56;;;;;;;;;;;;;;;-3.01;100.00;101055.41;5111725;28;20231;-72
2021/01/17 03:13:22;;;;;;;;;;;;;;;-2.99;100.00;101055.38;5111705;28;19924;-72
2021/01/17 03:15:48;;;;;;;;;;;;;;;-3.00;100.00;101049.19;5110009;28;19966;-72
2021/01/17 03:18:14;;;;;;;;;;;;;;;-3.02;100.00;101048.34;5111631;28;19931;-72
2021/01/17 03:20:40;;;;;;;;;;;;;;;-3.04;100.00;101048.38;5111741;28;19955;-72
2021/01/17 03:23:06;;;;;;;;;;;;;;;-3.06;100.00;101044.00;5111569;28;19931;-72
2021/01/17 03:25:32;;;;;;;;;;;;;;;-3.02;100.00;101040.38;5111581;28;19924;-72
2021/01/17 03:27:57;;;;;;;;;;;;;;;-3.00;100.00;101038.56;5111513;28;19923;-72
2021/01/17 03:30:23;;;;;;;;;;;;;;;-3.00;100.00;101043.03;5111476;28;20336;-72
2021/01/17 03:32:49;;;;;;;;;;;;;;;-2.97;100.00;101045.59;5111513;28;20018;-72
2021/01/17 03:35:16;;;;;;;;;;;;;;;-2.96;100.00;101044.72;5111254;28;19924;-72
2021/01/17 03:37:42;;;;;;;;;;;;;;;-2.94;100.00;101053.50;5113935;28;20023;-72
2021/01/17 03:40:08;;;;;;;;;;;;;;;-2.95;100.00;101062.38;5115462;28;19931;-72
2021/01/17 03:42:33;;;;;;;;;;;;;;;-2.96;100.00;101053.53;5115671;28;20468;-72
2021/01/17 03:44:59;;;;;;;;;;;;;;;-2.97;100.00;101054.44;5115388;28;19981;-72
2021/01/17 03:47:25;;;;;;;;;;;;;;;-2.98;100.00;101058.03;5115249;28;19966;-72
2021/01/17 03:49:51;;;;;;;;;;;;;;;-2.99;100.00;101052.72;5115301;28;19930;-70
2021/01/17 03:52:18;;;;;;;;;;;;;;;-3.00;100.00;101059.81;5115127;28;20405;-72
2021/01/17 03:54:43;;;;;;;;;;;;;;;-2.97;100.00;101064.19;5114957;28;19934;-72
2021/01/17 03:57:09;;;;;;;;;;;;;;;-2.98;100.00;101065.09;5114609;28;20427;-72
2021/01/17 03:59:35;;;;;;;;;;;;;;;-3.01;100.00;101055.41;5115182;28;19928;-72
2021/01/17 04:02:01;;;;;;;;;;;;;;;-2.98;100.00;101060.69;5115191;28;20382;-72
2021/01/17 04:04:26;;;;;;;;;;;;;;;-2.98;100.00;101065.09;5114903;28;20026;-72
2021/01/17 04:06:52;;;;;;;;;;;;;;;-2.98;100.00;101071.31;5114846;28;19931;-72
2021/01/17 04:09:19;;;;;;;;;;;;;;;-2.96;100.00;101071.28;5113710;28;19976;-72
2021/01/17 04:11:47;;;;;;;;;;;;;;;-3.00;100.00;101070.44;5114549;28;20031;-72
2021/01/17 04:14:13;;;;;;;;;;;;;;;-3.00;100.00;101064.28;5114696;28;20445;-72
2021/01/17 04:16:39;;;;;;;;;;;;;;;-2.99;100.00;101066.91;5114666;28;19924;-72
2021/01/17 04:19:04;;;;;;;;;;;;;;;-2.95;100.00;101071.25;5114678;28;20309;-72
2021/01/17 04:21:30;;;;;;;;;;;;;;;-2.94;100.00;101072.09;5114697;28;19935;-72
2021/01/17 04:23:56;;;;;;;;;;;;;;;-2.94;100.00;101074.75;5114618;28;19928;-72
2021/01/17 04:26:23;;;;;;;;;;;;;;;-2.92;100.00;101072.97;5114374;28;19924;-72
2021/01/17 04:28:48;;;;;;;;;;;;;;;-2.95;100.00;101079.22;5114400;28;19924;-72
2021/01/17 04:31:14;;;;;;;;;;;;;;;-2.94;100.00;101080.06;5114401;28;19924;-72
2021/01/17 04:33:40;;;;;;;;;;;;;;;-2.97;100.00;101086.31;5114445;28;19930;-72
2021/01/17 04:36:06;;;;;;;;;;;;;;;-2.94;100.00;101080.97;5114268;28;20396;-72
2021/01/17 04:38:32;;;;;;;;;;;;;;;-2.94;100.00;101083.63;5113092;28;20018;-72
2021/01/17 04:41:00;;;;;;;;;;;;;;;-2.93;100.00;101081.84;5113132;28;19924;-72
2021/01/17 04:43:29;;;;;;;;;;;;;;;-2.90;100.00;101087.06;5114289;28;19993;-72
2021/01/17 04:45:58;;;;;;;;;;;;;;;-2.94;100.00;101082.72;5114100;28;20281;-72
2021/01/17 04:48:25;;;;;;;;;;;;;;;-2.92;100.00;101084.44;5113147;28;20012;-72
2021/01/17 04:50:54;;;;;;;;;;;;;;;-2.93;100.00;101081.84;5114284;28;20031;-72
2021/01/17 04:53:20;;;;;;;;;;;;;;;-2.95;100.00;101078.31;5114170;28;20459;-72
2021/01/17 04:55:46;;;;;;;;;;;;;;;-2.96;100.00;101088.06;5113877;28;19962;-72
2021/01/17 04:58:25;;;;;;;;;;;;;;;-3.01;100.00;101084.63;5113946;28;19924;-72
2021/01/17 05:00:57;;;;;;;;;;;;;;;-3.00;100.00;101086.38;5112697;28;20018;-72
2021/01/17 05:03:25;;;;;;;;;;;;;;;-3.00;100.00;101090.84;5113882;28;20009;-73
2021/01/17 05:06:01;;;;;;;;;;;;;;;-2.98;100.00;101081.03;5113666;28;19934;-72
2021/01/17 05:08:31;;;;;;;;;;;;;;;-3.00;100.00;101086.38;5113595;28;20039;-72
2021/01/17 05:10:59;;;;;;;;;;;;;;;-2.98;100.00;101078.38;5113519;28;19935;-72
2021/01/17 05:13:25;;;;;;;;;;;;;;;-2.99;100.00;101090.81;5113543;28;20404;-72
2021/01/17 05:15:55;;;;;;;;;;;;;;;-2.99;100.00;101087.25;5113330;28;20385;-72
2021/01/17 05:18:23;;;;;;;;;;;;;;;-2.98;100.00;101095.22;5110284;28;20008;-72
2021/01/17 05:20:49;;;;;;;;;;;;;;;-3.00;100.00;101088.19;5102712;28;20385;-72
2021/01/17 05:23:15;;;;;;;;;;;;;;;-2.96;100.00;101088.06;5096698;28;20015;-72
2021/01/17 05:25:41;;;;;;;;;;;;;;;-2.93;100.00;101098.63;5094560;28;19985;-72
2021/01/17 05:28:07;;;;;;;;;;;;;;;-2.94;100.00;101096.00;5092986;28;20030;-72
2021/01/17 05:30:33;;;;;;;;;;;;;;;-2.94;100.00;101096.00;5103482;28;19924;-73
2021/01/17 05:33:04;;;;;;;;;;;;;;;-2.94;100.00;101096.91;5097454;28;19963;-72
2021/01/17 05:35:31;;;;;;;;;;;;;;;-2.90;100.00;101093.28;5090783;28;19974;-72
2021/01/17 05:37:57;;;;;;;;;;;;;;;-2.88;100.00;101098.56;5093768;28;19931;-72
2021/01/17 05:40:23;;;;;;;;;;;;;;;-2.85;100.00;101101.16;5092520;28;19970;-71
2021/01/17 05:42:49;;;;;;;;;;;;;;;-2.81;100.00;101101.97;5092702;28;19949;-72
2021/01/17 05:45:16;;;;;;;;;;;;;;;-2.82;100.00;101100.22;5092151;28;20027;-72
2021/01/17 05:47:42;;;;;;;;;;;;;;;-2.81;100.00;101112.59;5105990;28;20355;-72
2021/01/17 05:50:10;;;;;;;;;;;;;;;-2.79;100.00;101105.47;5092826;28;20381;-73
2021/01/17 05:52:37;;;;;;;;;;;;;;;-2.79;100.00;101111.66;5111508;28;20426;-73
2021/01/17 05:55:03;;;;;;;;;;;;;;;-2.81;100.00;101108.16;5107714;28;19984;-71
2021/01/17 05:57:31;;;;;;;;;;;;;;;-2.78;100.00;101115.19;5107792;28;19970;-71
2021/01/17 05:59:56;;;;;;;;;;;;;;;-2.78;100.00;101118.75;5095892;28;19928;-73
2021/01/17 06:02:23;;;;;;;;;;;;;;;-2.76;100.00;101113.41;5091723;28;19924;-72
2021/01/17 06:04:49;;;;;;;;;;;;;;;-2.82;100.00;101116.16;5101623;28;20072;-72
2021/01/17 06:07:16;;;;;;;;;;;;;;;-2.81;100.00;101125.91;5112434;28;19962;-72
2021/01/17 06:09:43;;;;;;;;;;;;;;;-2.80;100.00;101125.00;5103159;28;19928;-72
2021/01/17 06:12:10;;;;;;;;;;;;;;;-2.81;100.00;101128.56;5092145;28;20461;-72
2021/01/17 06:14:36;;;;;;;;;;;;;;;-2.86;100.00;101125.97;5099594;28;19963;-71
2021/01/17 06:17:03;;;;;;;;;;;;;;;-2.88;100.00;101126.00;5112053;28;19924;-72
2021/01/17 06:19:33;;;;;;;;;;;;;;;-2.87;100.00;101129.56;5099561;28;20282;-72
2021/01/17 06:21:59;;;;;;;;;;;;;;;-2.84;100.00;101136.59;5099059;28;19977;-72
2021/01/17 06:24:32;;;;;;;;;;;;;;;-2.82;100.00;101140.06;5110898;28;19924;-72
2021/01/17 06:27:00;;;;;;;;;;;;;;;-2.78;100.00;101139.09;5104890;28;19966;-71
2021/01/17 06:29:34;;;;;;;;;;;;;;;-2.80;100.00;101135.63;5091872;28;19971;-72
2021/01/17 06:32:06;;;;;;;;;;;;;;;-2.82;100.00;101140.06;5098269;28;20023;-71
2021/01/17 06:34:33;;;;;;;;;;;;;;;-2.80;100.00;101135.63;5112181;28;19924;-72
2021/01/17 06:37:04;;;;;;;;;;;;;;;-2.80;100.00;101138.28;5103762;28;20365;-72
2021/01/17 06:39:30;;;;;;;;;;;;;;;-2.81;100.00;101136.53;5091304;28;19971;-71
2021/01/17 06:41:57;;;;;;;;;;;;;;;-2.80;100.00;101140.94;5097557;28;19930;-72
2021/01/17 06:44:28;;;;;;;;;;;;;;;-2.79;100.00;101142.66;5110190;28;19927;-71
2021/01/17 06:46:54;;;;;;;;;;;;;;;-2.82;100.00;101145.38;5091370;28;19924;-72
2021/01/17 06:49:21;;;;;;;;;;;;;;;-2.89;100.00;101145.50;5091713;28;20381;-72
2021/01/17 06:51:47;;;;;;;;;;;;;;;-2.89;100.00;101152.59;5091360;28;19924;-73
2021/01/17 06:54:13;;;;;;;;;;;;;;;-2.91;100.00;101147.31;5091311;28;20010;-73
2021/01/17 06:56:40;;;;;;;;;;;;;;;-2.89;100.00;101148.16;5090855;28;19959;-76
2021/01/17 06:59:06;;;;;;;;;;;;;;;-2.93;100.00;101151.78;5091560;28;20011;-73
2021/01/17 07:01:41;;;;;;;;;;;;;;;-2.89;100.00;101157.91;5091056;28;19996;-73
2021/01/17 07:04:15;;;;;;;;;;;;;;;-2.88;100.00;101155.22;5091615;28;19994;-73
2021/01/17 07:06:55;;;;;;;;;;;;;;;-2.89;100.00;101153.47;5090934;28;19959;-73
2021/01/17 07:09:25;;;;;;;;;;;;;;;-2.84;100.00;101155.19;5091377;28;20449;-73
2021/01/17 07:11:56;;;;;;;;;;;;;;;-2.82;100.00;101154.22;5092200;28;20361;-73
2021/01/17 07:14:26;;;;;;;;;;;;;;;-2.87;100.00;101154.31;5095133;28;20381;-73
2021/01/17 07:16:55;;;;;;;;;;;;;;;-2.88;100.00;101165.84;5094535;28;20389;-72
2021/01/17 07:19:21;;;;;;;;;;;;;;;-2.89;100.00;101165.88;5094845;28;20034;-73
2021/01/17 07:21:50;;;;;;;;;;;;;;;-2.89;100.00;101166.75;5095156;28;19965;-72
2021/01/17 07:24:19;;;;;;;;;;;;;;;-2.86;100.00;101169.38;5094809;28;19978;-72
2021/01/17 07:26:49;;;;;;;;;;;;;;;-2.82;100.00;101170.16;5094177;28;20382;-72
2021/01/17 07:29:16;;;;;;;;;;;;;;;-2.80;100.00;101168.38;5093999;28;19982;-72
2021/01/17 07:31:43;;;;;;;;;;;;;;;-2.78;100.00;101176.31;5108321;28;20381;-72
2021/01/17 07:34:11;;;;;;;;;;;;;;;-2.80;100.00;101170.16;5094755;28;20027;-72
2021/01/17 07:36:38;;;;;;;;;;;;;;;-2.80;100.00;101183.47;5094903;28;19947;-72
2021/01/17 07:39:04;;;;;;;;;;;;;;;-2.78;100.00;101179.88;5107938;28;20022;-72
2021/01/17 07:41:35;;;;;;;;;;;;;;;-2.77;100.00;101188.72;5115503;28;20022;-72
2021/01/17 07:44:02;;;;;;;;;;;;;;;-2.77;100.00;101186.03;5095724;28;20023;-72
2021/01/17 07:46:29;;;;;;;;;;;;;;;-2.74;100.00;101180.66;5094780;28;20493;-73
2021/01/17 07:48:57;;;;;;;;;;;;;;;-2.74;100.00;101178.91;5112834;28;20022;-73
2021/01/17 07:51:23;;;;;;;;;;;;;;;-2.74;100.00;101183.31;5097180;28;20026;-73
2021/01/17 07:53:55;;;;;;;;;;;;;;;-2.73;100.00;101182.44;5094853;28;19947;-72
2021/01/17 07:56:25;;;;;;;;;;;;;;;-2.65;100.00;101185.81;5111825;28;19930;-73
2021/01/17 07:58:52;;;;;;;;;;;;;;;-2.67;100.00;101194.72;5112201;28;20297;-72
2021/01/17 08:01:41;;;;;;;;;;;;;;;-2.65;100.00;101192.91;5109296;28;19924;-72
2021/01/17 08:04:21;;;;;;;;;;;;;;;-2.68;100.00;101188.53;5095469;28;19955;-72
2021/01/17 08:06:48;;;;;;;;;;;;;;;-2.64;100.00;101203.53;5101566;28;19928;-72
2021/01/17 08:09:14;;;;;;;;;;;;;;;-2.64;100.00;101195.53;5115193;28;19969;-72
2021/01/17 08:11:41;;;;;;;;;;;;;;;-2.60;100.00;101191.91;5113042;28;19967;-71
2021/01/17 08:14:17;;;;;;;;;;;;;;;-2.56;100.00;101193.63;5114821;28;19927;-72
2021/01/17 08:16:58;;;;;;;;;;;;;;;-2.52;100.00;101195.31;5100013;28;19928;-72
2021/01/17 08:19:33;;;;;;;;;;;;;;;-2.48;100.00;101190.81;5114613;28;19968;-71
2021/01/17 08:22:25;;;;;;;;;;;;;;;-2.56;100.00;101190.09;5098405;28;19931;-70
2021/01/17 08:24:52;;;;;;;;;;;;;;;-2.50;100.00;101191.75;5094261;28;19969;-72
2021/01/17 08:27:29;;;;;;;;;;;;;;;-2.52;100.00;101187.31;5097384;28;20407;-71
2021/01/17 08:30:16;;;;;;;;;;;;;;;-2.46;100.00;101198.75;5112294;28;20470;-71
2021/01/17 08:32:43;;;;;;;;;;;;;;;-2.41;100.00;101197.75;5109203;28;20073;-71
2021/01/17 08:35:28;;;;;;;;;;;;;;;-2.34;100.00;101200.28;5114071;28;19931;-71
2021/01/17 08:37:56;;;;;;;;;;;;;;;-2.31;100.00;101205.53;5113847;28;19924;-71
2021/01/17 08:40:41;;;;;;;;;;;;;;;-2.27;100.00;101215.22;5114233;28;20464;-71
2021/01/17 08:43:08;;;;;;;;;;;;;;;-2.21;100.00;101215.09;5114227;28;20002;-71
2021/01/17 08:45:34;;;;;;;;;;;;;;;-2.21;100.00;101210.63;5113607;27;20095;-71
2021/01/17 08:48:02;;;;;;;;;;;;;;;-2.14;100.00;101216.72;5114090;28;19924;-71
2021/01/17 08:50:28;;;;;;;;;;;;;;;-2.12;100.00;101222.03;5113750;28;19988;-71
2021/01/17 08:53:06;;;;;;;;;;;;;;;-2.07;100.00;101214.78;5112648;28;20007;-71
2021/01/17 08:55:35;;;;;;;;;;;;;;;-2.11;100.00;101215.78;5113871;28;19923;-71
2021/01/17 08:58:01;;;;;;;;;;;;;;;-2.00;100.00;101220.88;5114140;28;19924;-73
2021/01/17 09:00:56;;;;;;;;;;;;;;;-1.95;100.00;101216.31;5113870;28;19928;-73
2021/01/17 09:03:23;;;;;;;;;;;;;;;-1.97;100.00;101227.00;5113369;28;19924;-73
2021/01/17 09:05:49;;;;;;;;;;;;;;;-1.96;100.00;101219.94;5112495;28;19923;-73
2021/01/17 09:08:16;;;;;;;;;;;;;;;-1.99;100.00;101226.19;5113606;28;19969;-71
2021/01/17 09:10:42;;;;;;;;;;;;;;;-1.97;100.00;101232.34;5113525;28;20018;-71
2021/01/17 09:13:16;;;;;;;;;;;;;;;-1.89;100.00;101232.19;5113361;28;19967;-72
2021/01/17 09:15:48;;;;;;;;;;;;;;;-1.81;100.00;101232.03;5113327;28;20364;-72
2021/01/17 09:18:22;;;;;;;;;;;;;;;-1.74;100.00;101238.94;5113110;28;20021;-72
2021/01/17 09:20:48;;;;;;;;;;;;;;;-1.74;100.00;101225.63;5113626;28;19928;-72
2021/01/17 09:23:14;;;;;;;;;;;;;;;-1.75;100.00;101232.75;5108223;28;19939;-73
2021/01/17 09:25:40;;;;;;;;;;;;;;;-1.67;100.00;101232.59;5092376;28;19924;-72
2021/01/17 09:28:06;;;;;;;;;;;;;;;-1.58;100.00;101235.03;5095217;28;20007;-72
2021/01/17 09:30:32;;;;;;;;;;;;;;;-1.50;100.00;101231.31;5112933;28;20420;-72
2021/01/17 09:32:58;;;;;;;;;;;;;;;-1.50;100.00;101234.00;5112290;28;19931;-72
2021/01/17 09:35:24;;;;;;;;;;;;;;;-1.60;100.00;101241.31;5112802;28;20342;-71
2021/01/17 09:37:56;;;;;;;;;;;;;;;-1.61;100.00;101229.78;5094065;28;19928;-71
2021/01/17 09:40:22;;;;;;;;;;;;;;;-1.55;100.00;101236.75;5092411;28;20023;-71
2021/01/17 09:42:50;;;;;;;;;;;;;;;-1.45;100.00;101240.09;5109375;28;19924;-71
2021/01/17 09:45:16;;;;;;;;;;;;;;;-1.34;100.00;101251.34;5112846;28;20015;-72
2021/01/17 09:47:41;;;;;;;;;;;;;;;-1.31;100.00;101243.31;5096631;28;20739;-72
2021/01/17 09:50:08;;;;;;;;;;;;;;;-1.25;100.00;101253.81;5106236;28;19947;-72
2021/01/17 09:52:37;;;;;;;;;;;;;;;-1.24;100.00;101252.91;5109022;28;20034;-72
2021/01/17 09:55:06;;;;;;;;;;;;;;;-1.36;100.00;101259.38;5111535;28;19928;-72
2021/01/17 09:57:36;;;;;;;;;;;;;;;-1.27;100.00;101255.66;5111992;28;20511;-72
2021/01/17 10:00:06;;;;;;;;;;;;;;;-1.25;100.00;101260.94;5112332;28;20408;-71
2021/01/17 10:02:32;;;;;;;;;;;;;;;-1.28;100.00;101261.88;5091894;28;19935;-72
2021/01/17 10:04:58;;;;;;;;;;;;;;;-1.26;100.00;101260.03;5092329;28;19928;-74
2021/01/17 10:07:24;;;;;;;;;;;;;;;-1.29;100.00;101265.44;5091134;28;20471;-71
2021/01/17 10:09:50;;;;;;;;;;;;;;;-1.19;100.00;101261.66;5092257;28;19924;-73
2021/01/17 10:12:18;;;;;;;;;;;;;;;-1.09;100.00;101267.63;5091261;28;20333;-71
2021/01/17 10:14:44;;;;;;;;;;;;;;;-1.00;100.00;101271.88;5091925;28;20385;-72
2021/01/17 10:17:11;;;;;;;;;;;;;;;-0.99;100.00;101268.28;5091349;28;19977;-72
2021/01/17 10:19:38;;;;;;;;;;;;;;;-0.89;100.00;101271.63;5091985;28;20027;-71
2021/01/17 10:22:04;;;;;;;;;;;;;;;-0.87;100.00;101278.66;5091735;28;20611;-71
2021/01/17 10:24:31;;;;;;;;;;;;;;;-0.78;100.00;101279.34;5091459;28;20039;-71
2021/01/17 10:26:57;;;;;;;;;;;;;;;-0.77;100.00;101281.97;5091439;28;20385;-75
2021/01/17 10:29:25;;;;;;;;;;;;;;;-0.93;100.00;101288.59;5091776;28;19931;-71
2021/01/17 10:31:53;;;;;;;;;;;;;;;-0.91;100.00;101284.09;5091610;28;20412;-71
2021/01/17 10:34:23;;;;;;;;;;;;;;;-1.02;100.00;101282.59;5091457;28;19950;-71
2021/01/17 10:36:49;;;;;;;;;;;;;;;-1.10;100.00;101281.88;5091427;28;20015;-71
2021/01/17 10:39:18;;;;;;;;;;;;;;;-1.07;100.00;101291.59;5091516;28;20015;-71
2021/01/17 10:41:44;;;;;;;;;;;;;;;-0.92;100.00;101291.22;5091849;28;19962;-72
2021/01/17 10:44:13;;;;;;;;;;;;;;;-0.90;100.00;101289.38;5091248;28;20464;-71
2021/01/17 10:46:43;;;;;;;;;;;;;;;-0.82;100.00;101297.19;5090638;28;19976;-71
2021/01/17 10:49:10;;;;;;;;;;;;;;;-0.92;100.00;101288.56;5090974;28;20301;-71
2021/01/17 10:51:41;;;;;;;;;;;;;;;-0.92;100.00;101291.22;5091186;28;19931;-72
2021/01/17 10:54:08;;;;;;;;;;;;;;;-0.83;100.00;101295.44;5090285;28;19970;-71
2021/01/17 10:56:34;;;;;;;;;;;;;;;-0.78;100.00;101296.22;5091189;28;19928;-71
2021/01/17 10:59:01;;;;;;;;;;;;;;;-0.80;100.00;101294.50;5091219;28;20014;-71
2021/01/17 11:01:30;;;;;;;;;;;;;;;-0.73;100.00;101288.09;5091419;28;20082;-71
2021/01/17 11:03:56;;;;;;;;;;;;;;;-0.74;100.00;101289.88;5091143;28;19924;-72
2021/01/17 11:06:26;;;;;;;;;;;;;;;-0.65;100.00;101294.13;5089841;28;19951;-71
2021/01/17 11:08:54;;;;;;;;;;;;;;;-0.60;100.00;101291.31;5091369;28;20014;-72
2021/01/17 11:11:20;;;;;;;;;;;;;;;-0.53;100.00;101293.78;5096691;28;19924;-71
2021/01/17 11:13:55;;;;;;;;;;;;;;;-0.52;100.00;101289.34;5090091;28;19924;-71
2021/01/17 11:16:32;;;;;;;;;;;;;;;-0.41;100.00;101287.25;5110676;28;19927;-71
2021/01/17 11:18:58;;;;;;;;;;;;;;;-0.40;100.00;101289.03;5111624;28;19928;-72
2021/01/17 11:21:24;;;;;;;;;;;;;;;-0.30;100.00;101294.13;5105462;28;19930;-72
2021/01/17 11:23:52;;;;;;;;;;;;;;;-0.29;100.00;101291.41;5111426;28;20007;-71
2021/01/17 11:26:21;;;;;;;;;;;;;;;-0.37;100.00;101288.06;5110564;28;20451;-73
2021/01/17 11:28:50;;;;;;;;;;;;;;;-0.49;100.00;101288.38;5111460;28;20445;-72
2021/01/17 11:31:16;;;;;;;;;;;;;;;-0.62;100.00;101283.34;5096001;28;19966;-72
2021/01/17 11:33:42;;;;;;;;;;;;;;;-0.52;100.00;101284.88;5110664;28;20018;-72
2021/01/17 11:36:08;;;;;;;;;;;;;;;-0.60;100.00;101285.97;5103399;28;19970;-72
2021/01/17 11:38:44;;;;;;;;;;;;;;;-0.72;100.00;101292.50;5108065;28;20346;-75
2021/01/17 11:41:10;;;;;;;;;;;;;;;-0.70;100.00;101294.22;5108005;28;20492;-73
2021/01/17 11:43:37;;;;;;;;;;;;;;;-0.77;100.00;101297.09;5111338;28;20032;-73
2021/01/17 11:46:06;;;;;;;;;;;;;;;-0.86;100.00;101295.53;5111314;28;20385;-73
2021/01/17 11:48:32;;;;;;;;;;;;;;;-1.02;100.00;101295.03;5109872;28;19932;-73
2021/01/17 11:50:58;;;;;;;;;;;;;;;-0.95;100.00;101296.66;5111284;28;20408;-72
2021/01/17 11:53:25;;;;;;;;;;;;;;;-1.03;100.00;101287.94;5110768;28;19924;-73
2021/01/17 11:55:51;;;;;;;;;;;;;;;-1.01;100.00;101299.44;5111062;28;19924;-73
2021/01/17 11:58:18;;;;;;;;;;;;;;;-0.87;100.00;101294.66;5113104;28;20396;-73
2021/01/17 12:00:48;;;;;;;;;;;;;;;-0.98;100.00;101295.84;5115128;28;20385;-73
2021/01/17 12:03:21;;;;;;;;;;;;;;;-1.01;100.00;101294.13;5114916;28;20007;-73
2021/01/17 12:05:55;;;;;;;;;;;;;;;-1.12;100.00;101288.16;5114737;28;20365;-73
2021/01/17 12:08:21;;;;;;;;;;;;;;;-1.02;100.00;101289.69;5114434;28;20355;-73
2021/01/17 12:10:53;;;;;;;;;;;;;;;-0.98;100.00;101283.38;5114985;28;19931;-73
2021/01/17 12:13:18;;;;;;;;;;;;;;;-0.92;100.00;101282.34;5114827;28;20006;-74
2021/01/17 12:15:44;;;;;;;;;;;;;;;-0.92;100.00;101279.66;5114545;28;19931;-73
2021/01/17 12:18:11;;;;;;;;;;;;;;;-0.99;100.00;101284.28;5114801;28;20388;-75
2021/01/17 12:20:37;;;;;;;;;;;;;;;-0.99;100.00;101283.41;5114908;28;19959;-75
2021/01/17 12:23:02;;;;;;;;;;;;;;;-0.78;100.00;101290.00;5114587;28;19923;-75
2021/01/17 12:25:28;;;;;;;;;;;;;;;-0.80;100.00;101289.16;5113435;28;19928;-72
2021/01/17 12:27:54;;;;;;;;;;;;;;;-0.89;100.00;101290.28;5113074;28;19924;-74
2021/01/17 12:30:20;;;;;;;;;;;;;;;-0.83;100.00;101294.56;5114521;28;19924;-74
2021/01/17 12:32:46;;;;;;;;;;;;;;;-0.85;100.00;101295.47;5114393;28;19963;-74